
Distance (Route):
Temperature : 10.9°C
Humidity : 62.1%
Pressure : 0hPa| Receiver | Frames | First received | Last received |
|---|---|---|---|
| LZ4TU-5 | 132 | 2026-09-05 23:24:59 | 2026-09-06 01:01:53 |
| Receiver | Date | Latitude | Longitude | Direction | Speed | Altitude | Climb | Temperature | Humidity | Pressure | Voltage | Killtimer | Uptime | BKT | XDATA |
|---|---|---|---|---|---|---|---|---|---|---|---|---|---|---|---|
| LZ4TU-5 | 2026-09-06 01:01:53 | 43.06147 | 22.73503 | 126° | 11km/h | 2735m | -13.9m/s | 10.9°C | 62.1% | 0hPa | 0V | 00:00:00 | 00:00:00 | 00:00:00 | |
| LZ4TU-5 | 2026-09-06 01:01:48 | 43.06153 | 22.73486 | 108° | 15km/h | 2806m | -13.8m/s | 10.4°C | 63.6% | 0hPa | 0V | 00:00:00 | 00:00:00 | 00:00:00 | |
| LZ4TU-5 | 2026-09-06 01:01:44 | 43.06157 | 22.73464 | 102° | 20km/h | 2863m | -13.7m/s | 10.2°C | 63.3% | 0hPa | 0V | 00:00:00 | 00:00:00 | 00:00:00 | |
| LZ4TU-5 | 2026-09-06 01:01:40 | 43.06160 | 22.73435 | 97° | 22km/h | 2915m | -13.8m/s | 10.0°C | 63.1% | 0hPa | 0V | 00:00:00 | 00:00:00 | 00:00:00 | |
| LZ4TU-5 | 2026-09-06 01:01:35 | 43.06163 | 22.73392 | 95° | 26km/h | 2975m | -14.2m/s | 9.5°C | 63.5% | 0hPa | 0V | 00:00:00 | 00:00:00 | 00:00:00 | |
| LZ4TU-5 | 2026-09-06 01:01:31 | 43.06166 | 22.73355 | 96° | 29km/h | 3032m | -13.7m/s | 9.2°C | 64.3% | 0hPa | 0V | 00:00:00 | 00:00:00 | 00:00:00 | |
| LZ4TU-5 | 2026-09-06 01:01:26 | 43.06168 | 22.73304 | 94° | 33km/h | 3104m | -14.0m/s | 8.8°C | 65.7% | 0hPa | 0V | 00:00:00 | 00:00:00 | 00:00:00 | |
| LZ4TU-5 | 2026-09-06 01:01:21 | 43.06172 | 22.73247 | 98° | 33km/h | 3176m | -13.7m/s | 8.3°C | 66.8% | 0hPa | 0V | 00:00:00 | 00:00:00 | 00:00:00 | |
| LZ4TU-5 | 2026-09-06 01:01:17 | 43.06177 | 22.73201 | 103° | 35km/h | 3234m | -14.1m/s | 8.0°C | 68.3% | 0hPa | 0V | 00:00:00 | 00:00:00 | 00:00:00 | |
| LZ4TU-5 | 2026-09-06 01:01:12 | 43.06188 | 22.73143 | 107° | 35km/h | 3304m | -13.9m/s | 7.4°C | 71.0% | 0hPa | 0V | 00:00:00 | 00:00:00 | 00:00:00 | |
| LZ4TU-5 | 2026-09-06 01:01:07 | 43.06206 | 22.73086 | 112° | 35km/h | 3367m | -14.1m/s | 6.8°C | 73.1% | 0hPa | 0V | 00:00:00 | 00:00:00 | 00:00:00 | |
| LZ4TU-5 | 2026-09-06 01:01:03 | 43.06221 | 22.73041 | 116° | 37km/h | 3426m | -14.3m/s | 6.4°C | 73.6% | 0hPa | 0V | 00:00:00 | 00:00:00 | 00:00:00 | |
| LZ4TU-5 | 2026-09-06 01:00:58 | 43.06243 | 22.72986 | 120° | 37km/h | 3502m | -14.7m/s | 5.7°C | 75.1% | 0hPa | 0V | 00:00:00 | 00:00:00 | 00:00:00 | |
| LZ4TU-5 | 2026-09-06 01:00:54 | 43.06265 | 22.72942 | 122° | 38km/h | 3563m | -14.6m/s | 5.3°C | 76.5% | 0hPa | 0V | 00:00:00 | 00:00:00 | 00:00:00 | |
| LZ4TU-5 | 2026-09-06 01:00:49 | 43.06293 | 22.72888 | 124° | 38km/h | 3639m | -14.3m/s | 4.6°C | 77.8% | 0hPa | 0V | 00:00:00 | 00:00:00 | 00:00:00 | |
| LZ4TU-5 | 2026-09-06 01:00:45 | 43.06313 | 22.72844 | 125° | 38km/h | 3692m | -14.6m/s | 4.1°C | 80.1% | 0hPa | 0V | 00:00:00 | 00:00:00 | 00:00:00 | |
| LZ4TU-5 | 2026-09-06 01:00:40 | 43.06342 | 22.72789 | 125° | 38km/h | 3768m | -14.8m/s | 3.4°C | 83.2% | 0hPa | 0V | 00:00:00 | 00:00:00 | 00:00:00 | |
| LZ4TU-5 | 2026-09-06 01:00:36 | 43.06365 | 22.72745 | 125° | 40km/h | 3825m | -14.7m/s | 2.8°C | 85.9% | 0hPa | 0V | 00:00:00 | 00:00:00 | 00:00:00 | |
| LZ4TU-5 | 2026-09-06 01:00:27 | 43.06417 | 22.72642 | 122° | 40km/h | 3961m | -14.8m/s | 1.6°C | 91.0% | 0hPa | 0V | 00:00:00 | 00:00:00 | 00:00:00 | |
| LZ4TU-5 | 2026-09-06 01:00:22 | 43.06442 | 22.72578 | 122° | 42km/h | 4031m | -14.9m/s | 1.0°C | 90.9% | 0hPa | 0V | 00:00:00 | 00:00:00 | 00:00:00 | |
| LZ4TU-5 | 2026-09-06 01:00:18 | 43.06469 | 22.72517 | 120° | 42km/h | 4103m | -15.4m/s | 0.3°C | 87.4% | 0hPa | 0V | 00:00:00 | 00:00:00 | 00:00:00 | |
| LZ4TU-5 | 2026-09-06 01:00:12 | 43.06494 | 22.72451 | 118° | 46km/h | 4181m | -15.5m/s | 0.7°C | 60.3% | 0hPa | 0V | 00:00:00 | 00:00:00 | 00:00:00 | |
| LZ4TU-5 | 2026-09-06 01:00:07 | 43.06522 | 22.72377 | 116° | 47km/h | 4258m | -14.8m/s | 1.0°C | 40.4% | 0hPa | 0V | 00:00:00 | 00:00:00 | 00:00:00 | |
| LZ4TU-5 | 2026-09-06 00:58:01 | 43.06718 | 22.70480 | 107° | 60km/h | 6169m | -16.1m/s | -10.5°C | 19.1% | 0hPa | 0V | 00:00:00 | 00:00:00 | 00:00:00 | |
| LZ4TU-5 | 2026-09-06 00:57:57 | 43.06735 | 22.70402 | 106° | 58km/h | 6235m | -15.9m/s | -11.0°C | 20.6% | 0hPa | 0V | 00:00:00 | 00:00:00 | 00:00:00 | |
| LZ4TU-5 | 2026-09-06 00:56:19 | 43.07511 | 22.68229 | 121° | 78km/h | 7905m | -18.6m/s | -20.7°C | 20.6% | 0hPa | 0V | 00:00:00 | 00:00:00 | 00:00:00 | |
| LZ4TU-5 | 2026-09-06 00:56:14 | 43.07562 | 22.68116 | 125° | 77km/h | 7998m | -18.0m/s | -21.1°C | 15.8% | 0hPa | 0V | 00:00:00 | 00:00:00 | 00:00:00 | |
| LZ4TU-5 | 2026-09-06 00:54:00 | 43.09341 | 22.65208 | 132° | 88km/h | 10544m | -20.4m/s | -43.3°C | 32.9% | 0hPa | 0V | 00:00:00 | 00:00:00 | 00:00:00 | |
| LZ4TU-5 | 2026-09-06 00:53:54 | 43.09414 | 22.65098 | 132° | 86km/h | 10652m | -20.9m/s | -44.2°C | 32.9% | 0hPa | 0V | 00:00:00 | 00:00:00 | 00:00:00 | |
| LZ4TU-5 | 2026-09-06 00:51:25 | 43.11001 | 22.61478 | 114° | 89km/h | 14168m | -26.9m/s | -65.5°C | 0.2% | 0hPa | 0V | 00:00:00 | 00:00:00 | 00:00:00 | |
| LZ4TU-5 | 2026-09-06 00:51:20 | 43.11037 | 22.61337 | 106° | 86km/h | 14305m | -27.1m/s | -59.9°C | 0.0% | 0hPa | 0V | 00:00:00 | 00:00:00 | 00:00:00 | |
| LZ4TU-5 | 2026-09-06 00:49:42 | 43.11361 | 22.58975 | 99° | 46km/h | 17334m | -34.8m/s | -58.5°C | 0.0% | 0hPa | 0V | 00:00:00 | 00:00:00 | 00:00:00 | |
| LZ4TU-5 | 2026-09-06 00:49:37 | 43.11364 | 22.58889 | 99° | 53km/h | 17507m | -35.4m/s | -60.0°C | 0.0% | 0hPa | 0V | 00:00:00 | 00:00:00 | 00:00:00 | |
| LZ4TU-5 | 2026-09-06 00:47:45 | 43.11397 | 22.57716 | 92° | 18km/h | 22170m | -45.7m/s | -54.2°C | 0.0% | 0hPa | 0V | 00:00:00 | 00:00:00 | 00:00:00 | |
| LZ4TU-5 | 2026-09-06 00:47:39 | 43.11399 | 22.57690 | 116° | 5km/h | 22397m | -44.2m/s | -54.1°C | 0.0% | 0hPa | 0V | 00:00:00 | 00:00:00 | 00:00:00 | |
| LZ4TU-5 | 2026-09-06 00:45:31 | 43.11327 | 22.57628 | 165° | 5km/h | 28979m | -56.1m/s | -44.7°C | 0.0% | 0hPa | 0V | 00:00:00 | 00:00:00 | 00:00:00 | |
| LZ4TU-5 | 2026-09-06 00:45:27 | 43.11336 | 22.57624 | 157° | 11km/h | 29211m | -57.5m/s | -44.7°C | 0.0% | 0hPa | 0V | 00:00:00 | 00:00:00 | 00:00:00 | |
| LZ4TU-5 | 2026-09-06 00:43:31 | 43.11403 | 22.57514 | 298° | 4km/h | 29754m | 7.5m/s | -46.2°C | 0.0% | 0hPa | 0V | 00:00:00 | 00:00:00 | 00:00:00 | |
| LZ4TU-5 | 2026-09-06 00:43:27 | 43.11398 | 22.57514 | 161° | 11km/h | 29729m | 6.2m/s | -46.3°C | 0.0% | 0hPa | 0V | 00:00:00 | 00:00:00 | 00:00:00 | |
| LZ4TU-5 | 2026-09-06 00:41:42 | 43.11581 | 22.57478 | 195° | 24km/h | 29028m | 7.4m/s | -45.6°C | 0.0% | 0hPa | 0V | 00:00:00 | 00:00:00 | 00:00:00 | |
| LZ4TU-5 | 2026-09-06 00:41:37 | 43.11594 | 22.57488 | 43° | 13km/h | 28995m | 6.5m/s | -45.6°C | 0.0% | 0hPa | 0V | 00:00:00 | 00:00:00 | 00:00:00 | |
| LZ4TU-5 | 2026-09-06 00:39:41 | 43.11520 | 22.57517 | 352° | 13km/h | 28239m | 5.8m/s | -45.2°C | 0.0% | 0hPa | 0V | 00:00:00 | 00:00:00 | 00:00:00 | |
| LZ4TU-5 | 2026-09-06 00:39:37 | 43.11531 | 22.57514 | 163° | 29km/h | 28206m | 7.2m/s | -45.3°C | 0.0% | 0hPa | 0V | 00:00:00 | 00:00:00 | 00:00:00 | |
| LZ4TU-5 | 2026-09-06 00:37:55 | 43.11110 | 22.57492 | 297° | 29km/h | 27572m | 8.0m/s | -47.9°C | 0.0% | 0hPa | 0V | 00:00:00 | 00:00:00 | 00:00:00 | |
| LZ4TU-5 | 2026-09-06 00:37:51 | 43.11097 | 22.57514 | 5° | 20km/h | 27547m | 8.2m/s | -47.9°C | 0.0% | 0hPa | 0V | 00:00:00 | 00:00:00 | 00:00:00 | |
| LZ4TU-5 | 2026-09-06 00:35:43 | 43.10827 | 22.58024 | 331° | 9km/h | 26746m | 7.2m/s | -48.9°C | 0.0% | 0hPa | 0V | 00:00:00 | 00:00:00 | 00:00:00 | |
| LZ4TU-5 | 2026-09-06 00:35:38 | 43.10832 | 22.58053 | 178° | 22km/h | 26718m | 5.1m/s | -48.9°C | 0.0% | 0hPa | 0V | 00:00:00 | 00:00:00 | 00:00:00 | |
| LZ4TU-5 | 2026-09-06 00:33:05 | 43.10658 | 22.57920 | 2° | 13km/h | 25769m | 5.6m/s | -49.2°C | 0.0% | 0hPa | 0V | 00:00:00 | 00:00:00 | 00:00:00 | |
| LZ4TU-5 | 2026-09-06 00:33:00 | 43.10651 | 22.57936 | 306° | 4km/h | 25736m | 6.7m/s | -49.1°C | 0.0% | 0hPa | 0V | 00:00:00 | 00:00:00 | 00:00:00 | |
| LZ4TU-5 | 2026-09-06 00:31:16 | 43.10971 | 22.57953 | 164° | 49km/h | 25094m | 6.2m/s | -49.7°C | 0.0% | 0hPa | 0V | 00:00:00 | 00:00:00 | 00:00:00 | |
| LZ4TU-5 | 2026-09-06 00:31:11 | 43.11001 | 22.57944 | 94° | 18km/h | 25063m | 7.2m/s | -49.8°C | 0.0% | 0hPa | 0V | 00:00:00 | 00:00:00 | 00:00:00 | |
| LZ4TU-5 | 2026-09-06 00:29:20 | 43.10683 | 22.57757 | 6° | 20km/h | 24391m | 6.1m/s | -52.1°C | 0.0% | 0hPa | 0V | 00:00:00 | 00:00:00 | 00:00:00 | |
| LZ4TU-5 | 2026-09-06 00:29:15 | 43.10666 | 22.57742 | 350° | 7km/h | 24360m | 6.2m/s | -52.3°C | 0.0% | 0hPa | 0V | 00:00:00 | 00:00:00 | 00:00:00 | |
| LZ4TU-5 | 2026-09-06 00:27:42 | 43.10441 | 22.57686 | 71° | 13km/h | 23800m | 6.4m/s | -54.1°C | 0.0% | 0hPa | 0V | 00:00:00 | 00:00:00 | 00:00:00 | |
| LZ4TU-5 | 2026-09-06 00:27:38 | 43.10425 | 22.57697 | 309° | 31km/h | 23772m | 6.3m/s | -54.4°C | 0.0% | 0hPa | 0V | 00:00:00 | 00:00:00 | 00:00:00 | |
| LZ4TU-5 | 2026-09-06 00:26:03 | 43.10456 | 22.57634 | 52° | 9km/h | 23229m | 4.3m/s | -54.6°C | 0.0% | 0hPa | 0V | 00:00:00 | 00:00:00 | 00:00:00 | |
| LZ4TU-5 | 2026-09-06 00:25:58 | 43.10452 | 22.57607 | 111° | 20km/h | 23199m | 5.2m/s | -54.5°C | 0.0% | 0hPa | 0V | 00:00:00 | 00:00:00 | 00:00:00 | |
| LZ4TU-5 | 2026-09-06 00:24:24 | 43.10352 | 22.57368 | 251° | 15km/h | 22652m | 5.0m/s | -55.9°C | 0.0% | 0hPa | 0V | 00:00:00 | 00:00:00 | 00:00:00 | |
| LZ4TU-5 | 2026-09-06 00:24:19 | 43.10358 | 22.57376 | 244° | 5km/h | 22622m | 5.1m/s | -55.7°C | 0.0% | 0hPa | 0V | 00:00:00 | 00:00:00 | 00:00:00 | |
| LZ4TU-5 | 2026-09-06 00:22:49 | 43.10460 | 22.57023 | 76° | 35km/h | 22090m | 4.6m/s | -55.7°C | 0.0% | 0hPa | 0V | 00:00:00 | 00:00:00 | 00:00:00 | |
| LZ4TU-5 | 2026-09-06 00:22:45 | 43.10458 | 22.56982 | 96° | 20km/h | 22068m | 4.6m/s | -56.1°C | 0.0% | 0hPa | 0V | 00:00:00 | 00:00:00 | 00:00:00 | |
| LZ4TU-5 | 2026-09-06 00:21:08 | 43.10441 | 22.56422 | 100° | 15km/h | 21516m | 5.8m/s | -56.4°C | 0.0% | 0hPa | 0V | 00:00:00 | 00:00:00 | 00:00:00 | |
| LZ4TU-5 | 2026-09-06 00:21:03 | 43.10441 | 22.56400 | 58° | 9km/h | 21488m | 4.2m/s | -56.4°C | 0.0% | 0hPa | 0V | 00:00:00 | 00:00:00 | 00:00:00 | |
| LZ4TU-5 | 2026-09-06 00:19:20 | 43.10665 | 22.55888 | 121° | 31km/h | 20904m | 5.2m/s | -55.8°C | 0.0% | 0hPa | 0V | 00:00:00 | 00:00:00 | 00:00:00 | |
| LZ4TU-5 | 2026-09-06 00:19:15 | 43.10677 | 22.55837 | 120° | 27km/h | 20875m | 4.7m/s | -55.9°C | 0.0% | 0hPa | 0V | 00:00:00 | 00:00:00 | 00:00:00 | |
| LZ4TU-5 | 2026-09-06 00:17:34 | 43.10488 | 22.54994 | 31° | 22km/h | 20317m | 6.0m/s | -56.5°C | 0.0% | 0hPa | 0V | 00:00:00 | 00:00:00 | 00:00:00 | |
| LZ4TU-5 | 2026-09-06 00:17:29 | 43.10473 | 22.54973 | 64° | 13km/h | 20290m | 5.7m/s | -56.4°C | 0.0% | 0hPa | 0V | 00:00:00 | 00:00:00 | 00:00:00 | |
| LZ4TU-5 | 2026-09-06 00:15:48 | 43.10439 | 22.54206 | 113° | 20km/h | 19718m | 4.9m/s | -56.3°C | 0.0% | 0hPa | 0V | 00:00:00 | 00:00:00 | 00:00:00 | |
| LZ4TU-5 | 2026-09-06 00:15:44 | 43.10438 | 22.54173 | 67° | 31km/h | 19697m | 5.6m/s | -56.5°C | 0.0% | 0hPa | 0V | 00:00:00 | 00:00:00 | 00:00:00 | |
| LZ4TU-5 | 2026-09-06 00:13:52 | 43.10253 | 22.52957 | 82° | 26km/h | 19076m | 5.8m/s | -57.8°C | 0.0% | 0hPa | 0V | 00:00:00 | 00:00:00 | 00:00:00 | |
| LZ4TU-5 | 2026-09-06 00:13:47 | 43.10256 | 22.52896 | 95° | 38km/h | 19049m | 4.8m/s | -58.3°C | 0.0% | 0hPa | 0V | 00:00:00 | 00:00:00 | 00:00:00 | |
| LZ4TU-5 | 2026-09-06 00:12:12 | 43.10071 | 22.51835 | 126° | 33km/h | 18528m | 5.9m/s | -58.6°C | 0.3% | 0hPa | 0V | 00:00:00 | 00:00:00 | 00:00:00 | |
| LZ4TU-5 | 2026-09-06 00:12:07 | 43.10081 | 22.51775 | 92° | 49km/h | 18500m | 5.3m/s | -58.5°C | 0.3% | 0hPa | 0V | 00:00:00 | 00:00:00 | 00:00:00 | |
| LZ4TU-5 | 2026-09-06 00:10:04 | 43.10664 | 22.49828 | 99° | 55km/h | 17844m | 5.4m/s | -60.4°C | 1.4% | 0hPa | 0V | 00:00:00 | 00:00:00 | 00:00:00 | |
| LZ4TU-5 | 2026-09-06 00:09:59 | 43.10688 | 22.49727 | 118° | 68km/h | 17816m | 5.7m/s | -60.1°C | 1.4% | 0hPa | 0V | 00:00:00 | 00:00:00 | 00:00:00 | |
| LZ4TU-5 | 2026-09-06 00:08:17 | 43.10736 | 22.47980 | 113° | 53km/h | 17245m | 5.4m/s | -58.6°C | 3.3% | 0hPa | 0V | 00:00:00 | 00:00:00 | 00:00:00 | |
| LZ4TU-5 | 2026-09-06 00:08:12 | 43.10751 | 22.47900 | 92° | 40km/h | 17219m | 5.9m/s | -58.4°C | 0% | 0hPa | 0V | 00:00:00 | 00:00:00 | 00:00:00 | |
| LZ4TU-5 | 2026-09-06 00:06:33 | 43.11327 | 22.46123 | 107° | 71km/h | 16700m | 5.6m/s | -61.5°C | 4.9% | 0hPa | 0V | 00:00:00 | 00:00:00 | 00:00:00 | |
| LZ4TU-5 | 2026-09-06 00:06:29 | 43.11341 | 22.46036 | 106° | 66km/h | 16680m | 5.6m/s | -61.5°C | 5.0% | 0hPa | 0V | 00:00:00 | 00:00:00 | 00:00:00 | |
| LZ4TU-5 | 2026-09-06 00:04:48 | 43.11611 | 22.43186 | 101° | 86km/h | 16142m | 6.2m/s | -61.3°C | 6.6% | 0hPa | 0V | 00:00:00 | 00:00:00 | 00:00:00 | |
| LZ4TU-5 | 2026-09-06 00:04:43 | 43.11622 | 22.43048 | 89° | 80km/h | 16115m | 6.6m/s | -61.1°C | 6.6% | 0hPa | 0V | 00:00:00 | 00:00:00 | 00:00:00 | |
| LZ4TU-5 | 2026-09-06 00:03:13 | 43.11774 | 22.40469 | 105° | 78km/h | 15616m | 3.7m/s | -62.0°C | 9.1% | 0hPa | 0V | 00:00:00 | 00:00:00 | 00:00:00 | |
| LZ4TU-5 | 2026-09-06 00:03:08 | 43.11789 | 22.40338 | 99° | 78km/h | 15592m | 4.8m/s | -61.9°C | 9.2% | 0hPa | 0V | 00:00:00 | 00:00:00 | 00:00:00 | |
| LZ4TU-5 | 2026-09-06 00:01:28 | 43.12022 | 22.37856 | 99° | 75km/h | 15116m | 4.6m/s | -61.5°C | 13.5% | 0hPa | 0V | 00:00:00 | 00:00:00 | 00:00:00 | |
| LZ4TU-5 | 2026-09-05 23:59:31 | 43.12319 | 22.34827 | 109° | 89km/h | 14498m | 4.2m/s | -61.3°C | 28.8% | 0hPa | 0V | 00:00:00 | 00:00:00 | 00:00:00 | |
| LZ4TU-5 | 2026-09-05 23:59:25 | 43.12364 | 22.34669 | 109° | 100km/h | 14477m | 3.3m/s | -61.4°C | 29.7% | 0hPa | 0V | 00:00:00 | 00:00:00 | 00:00:00 | |
| LZ4TU-5 | 2026-09-05 23:57:41 | 43.13205 | 22.31542 | 100° | 99km/h | 13840m | 5.8m/s | -66.1°C | 33.5% | 0hPa | 0V | 00:00:00 | 00:00:00 | 00:00:00 | |
| LZ4TU-5 | 2026-09-05 23:57:36 | 43.13239 | 22.31384 | 117° | 73km/h | 13810m | 6.3m/s | -65.9°C | 0% | 0hPa | 0V | 00:00:00 | 00:00:00 | 00:00:00 | |
| LZ4TU-5 | 2026-09-05 23:55:56 | 43.13678 | 22.29317 | 128° | 51km/h | 13188m | 10.3m/s | -61.0°C | 22.4% | 0hPa | 0V | 00:00:00 | 00:00:00 | 00:00:00 | |
| LZ4TU-5 | 2026-09-05 23:55:52 | 43.13716 | 22.29267 | 117° | 57km/h | 13164m | 5.7m/s | -60.8°C | 22.0% | 0hPa | 0V | 00:00:00 | 00:00:00 | 00:00:00 | |
| LZ4TU-5 | 2026-09-05 23:54:09 | 43.15005 | 22.27262 | 143° | 80km/h | 12517m | 6.7m/s | -57.1°C | 19.4% | 0hPa | 0V | 00:00:00 | 00:00:00 | 00:00:00 | |
| LZ4TU-5 | 2026-09-05 23:54:05 | 43.15064 | 22.27186 | 134° | 88km/h | 12496m | 6.0m/s | -57.0°C | 19.3% | 0hPa | 0V | 00:00:00 | 00:00:00 | 00:00:00 | |
| LZ4TU-5 | 2026-09-05 23:52:24 | 43.16416 | 22.24964 | 125° | 80km/h | 11897m | 5.0m/s | -53.1°C | 19.5% | 0hPa | 0V | 00:00:00 | 00:00:00 | 00:00:00 | |
| LZ4TU-5 | 2026-09-05 23:52:19 | 43.16485 | 22.24849 | 130° | 80km/h | 11872m | 4.1m/s | -52.9°C | 19.8% | 0hPa | 0V | 00:00:00 | 00:00:00 | 00:00:00 | |
| LZ4TU-5 | 2026-09-05 23:50:34 | 43.17857 | 22.22382 | 130° | 88km/h | 11312m | 6.4m/s | -49.5°C | 23.9% | 0hPa | 0V | 00:00:00 | 00:00:00 | 00:00:00 | |
| LZ4TU-5 | 2026-09-05 23:50:29 | 43.17935 | 22.22268 | 131° | 91km/h | 11284m | 5.4m/s | -49.3°C | 24.2% | 0hPa | 0V | 00:00:00 | 00:00:00 | 00:00:00 | |
| LZ4TU-5 | 2026-09-05 23:48:47 | 43.19304 | 22.19976 | 132° | 84km/h | 10751m | 5.7m/s | -45.3°C | 22.2% | 0hPa | 0V | 00:00:00 | 00:00:00 | 00:00:00 | |
| LZ4TU-5 | 2026-09-05 23:48:42 | 43.19379 | 22.19873 | 135° | 86km/h | 10724m | 5.7m/s | -45.1°C | 21.8% | 0hPa | 0V | 00:00:00 | 00:00:00 | 00:00:00 | |
| LZ4TU-5 | 2026-09-05 23:48:37 | 43.19447 | 22.19763 | 130° | 78km/h | 10701m | 4.8m/s | -44.8°C | 21.3% | 0hPa | 0V | 00:00:00 | 00:00:00 | 00:00:00 | |
| LZ4TU-5 | 2026-09-05 23:46:58 | 43.20855 | 22.17609 | 133° | 73km/h | 10169m | 5.6m/s | -40.0°C | 15.3% | 0hPa | 0V | 00:00:00 | 00:00:00 | 00:00:00 | |
| LZ4TU-5 | 2026-09-05 23:46:53 | 43.20913 | 22.17509 | 132° | 84km/h | 10146m | 5.1m/s | -39.8°C | 15.2% | 0hPa | 0V | 00:00:00 | 00:00:00 | 00:00:00 | |
| LZ4TU-5 | 2026-09-05 23:45:24 | 43.22190 | 22.15630 | 128° | 91km/h | 9678m | 6.6m/s | -35.7°C | 12.5% | 0hPa | 0V | 00:00:00 | 00:00:00 | 00:00:00 | |
| LZ4TU-5 | 2026-09-05 23:45:18 | 43.22270 | 22.15526 | 140° | 62km/h | 9648m | 7.3m/s | -35.4°C | 12.4% | 0hPa | 0V | 00:00:00 | 00:00:00 | 00:00:00 | |
| LZ4TU-5 | 2026-09-05 23:43:51 | 43.23318 | 22.13538 | 113° | 66km/h | 9190m | 4.2m/s | -31.2°C | 11.8% | 0hPa | 0V | 00:00:00 | 00:00:00 | 00:00:00 | |
| LZ4TU-5 | 2026-09-05 23:43:46 | 43.23363 | 22.13410 | 128° | 86km/h | 9164m | 5.6m/s | -31.0°C | 11.8% | 0hPa | 0V | 00:00:00 | 00:00:00 | 00:00:00 | |
| LZ4TU-5 | 2026-09-05 23:42:19 | 43.24270 | 22.11139 | 120° | 86km/h | 8708m | 3.8m/s | -27.4°C | 14.3% | 0hPa | 0V | 00:00:00 | 00:00:00 | 00:00:00 | |
| LZ4TU-5 | 2026-09-05 23:42:14 | 43.24325 | 22.11009 | 121° | 97km/h | 8685m | 5.2m/s | -27.2°C | 14.5% | 0hPa | 0V | 00:00:00 | 00:00:00 | 00:00:00 | |
| LZ4TU-5 | 2026-09-05 23:40:47 | 43.25302 | 22.09005 | 118° | 78km/h | 8193m | 6.0m/s | -24.2°C | 26.8% | 0hPa | 0V | 00:00:00 | 00:00:00 | 00:00:00 | |
| LZ4TU-5 | 2026-09-05 23:40:42 | 43.25347 | 22.08879 | 115° | 91km/h | 8167m | 3.4m/s | -24.0°C | 0% | 0hPa | 0V | 00:00:00 | 00:00:00 | 00:00:00 | |
| LZ4TU-5 | 2026-09-05 23:39:24 | 43.26223 | 22.06969 | 131° | 97km/h | 7730m | 6.7m/s | -20.8°C | 31.6% | 0hPa | 0V | 00:00:00 | 00:00:00 | 00:00:00 | |
| LZ4TU-5 | 2026-09-05 23:39:22 | 43.26286 | 22.06856 | 135° | 88km/h | 7703m | 4.8m/s | -20.6°C | 31.8% | 0hPa | 0V | 00:00:00 | 00:00:00 | 00:00:00 | |
| LZ4TU-5 | 2026-09-05 23:37:59 | 43.27347 | 22.05136 | 124° | 88km/h | 7304m | 6.2m/s | -18.2°C | 36.3% | 0hPa | 0V | 00:00:00 | 00:00:00 | 00:00:00 | |
| LZ4TU-5 | 2026-09-05 23:37:54 | 43.27410 | 22.05001 | 117° | 97km/h | 7277m | 7.5m/s | -18.0°C | 34.7% | 0hPa | 0V | 00:00:00 | 00:00:00 | 00:00:00 | |
| LZ4TU-5 | 2026-09-05 23:36:25 | 43.28131 | 22.03180 | 98° | 71km/h | 6801m | 6.2m/s | -15.8°C | 46.4% | 0hPa | 0V | 00:00:00 | 00:00:00 | 00:00:00 | |
| LZ4TU-5 | 2026-09-05 23:35:06 | 43.28337 | 22.01519 | 97° | 84km/h | 6400m | 2.9m/s | -13.0°C | 60.8% | 0hPa | 0V | 00:00:00 | 00:00:00 | 00:00:00 | |
| LZ4TU-5 | 2026-09-05 23:35:01 | 43.28353 | 22.01402 | 108° | 47km/h | 6376m | 5.5m/s | -12.8°C | 60.8% | 0hPa | 0V | 00:00:00 | 00:00:00 | 00:00:00 | |
| LZ4TU-5 | 2026-09-05 23:33:29 | 43.28617 | 21.99685 | 119° | 60km/h | 5902m | 4.7m/s | -9.8°C | 19.0% | 0hPa | 0V | 00:00:00 | 00:00:00 | 00:00:00 | |
| LZ4TU-5 | 2026-09-05 23:33:24 | 43.28628 | 21.99579 | 83° | 60km/h | 5871m | 3.5m/s | -9.9°C | 23.8% | 0hPa | 0V | 00:00:00 | 00:00:00 | 00:00:00 | |
| LZ4TU-5 | 2026-09-05 23:31:34 | 43.28803 | 21.97866 | 119° | 35km/h | 5263m | 5.2m/s | -7.6°C | 57.2% | 0hPa | 0V | 00:00:00 | 00:00:00 | 00:00:00 | |
| LZ4TU-5 | 2026-09-05 23:31:29 | 43.28813 | 21.97813 | 78° | 31km/h | 5232m | 6.7m/s | -7.4°C | 56.7% | 0hPa | 0V | 00:00:00 | 00:00:00 | 00:00:00 | |
| LZ4TU-5 | 2026-09-05 23:30:19 | 43.28864 | 21.96908 | 84° | 38km/h | 4839m | 6.6m/s | -3.9°C | 51.1% | 0hPa | 0V | 00:00:00 | 00:00:00 | 00:00:00 | |
| LZ4TU-5 | 2026-09-05 23:30:14 | 43.28849 | 21.96862 | 61° | 18km/h | 4814m | 3.9m/s | -3.6°C | 51.3% | 0hPa | 0V | 00:00:00 | 00:00:00 | 00:00:00 | |
| LZ4TU-5 | 2026-09-05 23:29:06 | 43.29036 | 21.95923 | 107° | 62km/h | 4432m | 3.4m/s | -0.5°C | 51.2% | 0hPa | 0V | 00:00:00 | 00:00:00 | 00:00:00 | |
| LZ4TU-5 | 2026-09-05 23:29:00 | 43.29032 | 21.95850 | 94° | 22km/h | 4406m | 5.0m/s | -0.3°C | 49.9% | 0hPa | 0V | 00:00:00 | 00:00:00 | 00:00:00 | |
| LZ4TU-5 | 2026-09-05 23:27:52 | 43.29221 | 21.94916 | 126° | 66km/h | 4033m | 5.6m/s | 3.1°C | 30.3% | 0hPa | 0V | 00:00:00 | 00:00:00 | 00:00:00 | |
| LZ4TU-5 | 2026-09-05 23:27:47 | 43.29243 | 21.94808 | 92° | 49km/h | 4009m | 5.0m/s | 3.1°C | 31.6% | 0hPa | 0V | 00:00:00 | 00:00:00 | 00:00:00 | |
| LZ4TU-5 | 2026-09-05 23:26:39 | 43.29524 | 21.93786 | 88° | 38km/h | 3691m | 4.9m/s | 3.1°C | 76.6% | 0hPa | 0V | 00:00:00 | 00:00:00 | 00:00:00 | |
| LZ4TU-5 | 2026-09-05 23:26:34 | 43.29542 | 21.93741 | 131° | 53km/h | 3669m | 5.1m/s | 3.3°C | 75.4% | 0hPa | 0V | 00:00:00 | 00:00:00 | 00:00:00 | |
| LZ4TU-5 | 2026-09-05 23:25:22 | 43.29898 | 21.92699 | 95° | 18km/h | 3313m | 4.1m/s | 6.5°C | 62.9% | 0hPa | 0V | 00:00:00 | 00:00:00 | 00:00:00 | |
| LZ4TU-5 | 2026-09-05 23:25:08 | 43.29923 | 21.92506 | 102° | 51km/h | 3238m | 4.6m/s | 7.0°C | 63.4% | 0hPa | 0V | 00:00:00 | 00:00:00 | 00:00:00 | |
| LZ4TU-5 | 2026-09-05 23:25:04 | 43.29945 | 21.92449 | 121° | 33km/h | 3214m | 5.1m/s | 7.2°C | 65.0% | 0hPa | 0V | 00:00:00 | 00:00:00 | 00:00:00 | |
| LZ4TU-5 | 2026-09-05 23:24:59 | 43.29950 | 21.92414 | 88° | 15km/h | 3189m | 4.0m/s | 7.4°C | 65.7% | 0hPa | 0V | 00:00:00 | 00:00:00 | 00:00:00 |